createdAt,value
2018-02-23T00:01:48.403Z,77.17
2018-02-23T00:04:15.964Z,76.02
2018-02-23T00:06:43.485Z,76.75
2018-02-23T00:09:11.030Z,77.38
2018-02-23T00:11:38.585Z,76.88
2018-02-23T00:14:06.974Z,77.57
2018-02-23T00:16:34.634Z,77.70
2018-02-23T00:19:02.187Z,76.78
2018-02-23T00:21:29.738Z,76.75
2018-02-23T00:23:57.270Z,77.22
2018-02-23T00:26:24.829Z,77.10
2018-02-23T00:28:52.352Z,76.89
2018-02-23T00:31:19.998Z,76.83
2018-02-23T00:33:47.500Z,76.48
2018-02-23T00:36:15.102Z,77.16
2018-02-23T00:38:42.624Z,76.49
2018-02-23T00:41:10.159Z,76.05
2018-02-23T00:43:37.700Z,76.04
2018-02-23T00:46:05.259Z,76.74
2018-02-23T00:48:32.792Z,76.33
2018-02-23T00:51:00.302Z,76.68
2018-02-23T00:53:27.832Z,76.86
2018-02-23T00:55:55.405Z,77.13
2018-02-23T00:58:22.943Z,76.89
2018-02-23T01:00:50.500Z,75.98
2018-02-23T01:03:18.037Z,77.20
2018-02-23T01:05:45.594Z,77.56
2018-02-23T01:08:13.126Z,77.27
2018-02-23T01:10:40.656Z,77.02
2018-02-23T01:13:08.224Z,76.72
2018-02-23T01:15:35.765Z,76.57
2018-02-23T01:18:03.326Z,76.74
2018-02-23T01:20:30.853Z,76.47
2018-02-23T01:22:58.354Z,77.14
2018-02-23T01:25:25.874Z,76.74
2018-02-23T01:27:53.426Z,76.92
2018-02-23T01:30:21.030Z,76.47
2018-02-23T01:32:48.588Z,76.21
2018-02-23T01:35:16.248Z,77.31
2018-02-23T01:37:43.764Z,76.20
2018-02-23T01:40:11.343Z,76.95
2018-02-23T01:42:39.047Z,76.79
2018-02-23T01:45:06.571Z,76.89
2018-02-23T01:47:34.098Z,76.69
2018-02-23T01:50:01.627Z,75.78
2018-02-23T01:52:29.195Z,76.71
2018-02-23T01:54:56.776Z,77.31
2018-02-23T01:57:24.325Z,76.38
2018-02-23T01:59:51.949Z,76.30
2018-02-23T02:02:20.311Z,77.12
2018-02-23T02:04:47.832Z,76.81
2018-02-23T02:07:15.370Z,77.26
2018-02-23T02:09:42.889Z,76.76
2018-02-23T02:12:10.439Z,76.64
2018-02-23T02:14:37.956Z,76.91
2018-02-23T02:17:05.473Z,76.01
2018-02-23T02:19:33.002Z,76.63
2018-02-23T02:22:00.526Z,76.55
2018-02-23T02:24:28.036Z,75.65
2018-02-23T02:26:55.819Z,76.61
2018-02-23T02:29:23.391Z,75.98
2018-02-23T02:31:50.982Z,77.00
2018-02-23T02:34:18.505Z,77.12
2018-02-23T02:36:46.077Z,77.09
2018-02-23T02:39:13.602Z,76.76
2018-02-23T02:41:41.181Z,76.33
2018-02-23T02:44:08.740Z,76.01
2018-02-23T02:46:36.246Z,76.46
2018-02-23T02:49:03.757Z,76.20
2018-02-23T02:51:31.276Z,77.01
2018-02-23T02:53:58.824Z,76.91
2018-02-23T02:56:26.364Z,75.95
2018-02-23T02:58:53.899Z,76.67
2018-02-23T03:01:21.458Z,76.85
2018-02-23T03:03:48.966Z,76.62
2018-02-23T03:06:16.480Z,76.99
2018-02-23T03:08:44.000Z,76.59
2018-02-23T03:11:11.522Z,75.75
2018-02-23T03:13:39.043Z,76.68
2018-02-23T03:16:06.553Z,76.26
2018-02-23T03:18:34.053Z,75.16
2018-02-23T03:21:01.557Z,77.01
2018-02-23T03:23:29.072Z,75.72
2018-02-23T03:25:56.592Z,77.41
2018-02-23T03:28:24.093Z,75.18
2018-02-23T03:30:51.643Z,77.39
2018-02-23T03:33:19.181Z,76.71
2018-02-23T03:35:46.696Z,76.23
2018-02-23T03:38:14.215Z,77.40
2018-02-23T03:40:41.720Z,75.84
2018-02-23T03:43:09.251Z,76.17
2018-02-23T03:45:36.756Z,75.98
2018-02-23T03:48:04.283Z,76.17
2018-02-23T03:50:31.787Z,77.35
2018-02-23T03:52:59.309Z,76.02
2018-02-23T03:55:26.980Z,77.43
2018-02-23T03:57:54.501Z,77.55
2018-02-23T04:00:22.132Z,75.73
2018-02-23T04:02:49.645Z,76.37
2018-02-23T04:05:17.235Z,76.63
2018-02-23T04:07:44.747Z,76.70
2018-02-23T04:10:12.335Z,76.77
2018-02-23T04:12:39.873Z,77.58
2018-02-23T04:15:07.395Z,77.35
2018-02-23T04:17:34.913Z,76.76
2018-02-23T04:20:02.431Z,76.77
2018-02-23T04:22:29.944Z,76.11
2018-02-23T04:24:57.475Z,76.65
2018-02-23T04:27:24.988Z,76.66
2018-02-23T04:29:52.530Z,76.25
2018-02-23T04:32:20.050Z,75.90
2018-02-23T04:34:47.621Z,76.86
2018-02-23T04:37:15.163Z,77.05
2018-02-23T04:39:42.692Z,77.27
2018-02-23T04:42:10.191Z,76.51
2018-02-23T04:44:37.702Z,77.14
2018-02-23T04:47:05.395Z,76.92
2018-02-23T04:49:32.952Z,76.22
2018-02-23T04:52:00.458Z,76.42
2018-02-23T04:54:27.971Z,75.45
2018-02-23T04:56:55.473Z,76.91
2018-02-23T04:59:23.012Z,76.82
2018-02-23T05:01:50.546Z,76.28
2018-02-23T05:04:18.074Z,76.69
2018-02-23T05:06:45.602Z,76.72
2018-02-23T05:09:13.122Z,77.09
2018-02-23T05:11:40.701Z,76.38
2018-02-23T05:14:08.257Z,76.81
2018-02-23T05:16:35.775Z,76.05
2018-02-23T05:19:03.339Z,76.10
2018-02-23T05:21:30.885Z,76.82
2018-02-23T05:23:58.400Z,76.87
2018-02-23T05:26:25.934Z,77.28
2018-02-23T05:28:53.441Z,76.40
2018-02-23T05:31:21.068Z,75.85
2018-02-23T05:33:48.646Z,76.48
2018-02-23T05:36:16.190Z,77.43
2018-02-23T05:38:43.685Z,76.30
2018-02-23T05:41:11.190Z,76.49
2018-02-23T05:43:38.765Z,76.32
2018-02-23T05:46:06.332Z,75.74
2018-02-23T05:48:33.870Z,77.08
2018-02-23T05:51:01.387Z,76.22
2018-02-23T05:53:28.982Z,76.10
2018-02-23T05:55:56.528Z,76.63
2018-02-23T05:58:24.095Z,76.44
2018-02-23T06:00:51.653Z,75.74
2018-02-23T06:03:19.202Z,75.53
2018-02-23T06:05:46.763Z,76.59
2018-02-23T06:08:14.275Z,76.78
2018-02-23T06:10:41.843Z,75.22
2018-02-23T06:13:09.601Z,76.44
2018-02-23T06:15:42.914Z,75.38
2018-02-23T06:18:10.480Z,75.53
2018-02-23T06:20:38.109Z,76.59
2018-02-23T06:23:05.636Z,75.55
2018-02-23T06:25:33.181Z,75.98
2018-02-23T06:28:00.847Z,75.81
2018-02-23T06:30:28.385Z,76.05
2018-02-23T06:32:55.929Z,76.64
2018-02-23T06:35:23.567Z,76.54
2018-02-23T06:37:51.125Z,75.97
2018-02-23T06:40:18.649Z,74.03
2018-02-23T06:42:46.266Z,75.19
2018-02-23T06:45:13.798Z,75.79
2018-02-23T06:47:41.304Z,75.67
2018-02-23T06:50:08.814Z,75.17
2018-02-23T06:52:36.377Z,75.87
2018-02-23T06:55:04.049Z,74.41
2018-02-23T06:57:31.690Z,75.65
2018-02-23T06:59:59.241Z,75.07
2018-02-23T07:02:26.768Z,73.61
2018-02-23T07:04:54.271Z,75.32
2018-02-23T07:07:21.809Z,75.30
2018-02-23T07:09:49.345Z,74.81
2018-02-23T07:12:16.896Z,74.97
2018-02-23T07:14:44.503Z,74.53
2018-02-23T07:17:12.049Z,74.13
2018-02-23T07:19:39.706Z,75.16
2018-02-23T07:22:07.308Z,73.71
2018-02-23T07:24:34.834Z,74.26
2018-02-23T07:27:02.344Z,74.95
2018-02-23T07:29:29.862Z,74.93
2018-02-23T07:31:57.409Z,73.37
2018-02-23T07:34:24.947Z,72.57
2018-02-23T07:36:52.471Z,73.50
2018-02-23T07:39:19.978Z,72.72
2018-02-23T07:41:47.481Z,74.63
2018-02-23T07:44:15.034Z,72.00
2018-02-23T07:46:42.561Z,73.36
2018-02-23T07:49:10.100Z,73.62
2018-02-23T07:51:37.617Z,72.95
2018-02-23T07:54:05.560Z,73.32
2018-02-23T07:56:33.220Z,72.43
2018-02-23T07:59:00.734Z,73.32
2018-02-23T08:01:28.279Z,72.47
2018-02-23T08:03:55.781Z,70.94
2018-02-23T08:06:23.293Z,72.98
2018-02-23T08:08:50.814Z,72.20
2018-02-23T08:11:18.342Z,71.70
2018-02-23T08:13:45.877Z,70.77
2018-02-23T08:16:13.419Z,72.61
2018-02-23T08:18:40.952Z,71.62
2018-02-23T08:21:08.486Z,71.76
2018-02-23T08:23:36.007Z,71.74
2018-02-23T08:26:03.541Z,71.28
2018-02-23T08:28:31.062Z,71.83
2018-02-23T08:30:58.607Z,70.34
2018-02-23T08:33:26.200Z,72.70
2018-02-23T08:35:53.718Z,71.55
2018-02-23T08:38:21.250Z,68.55
2018-02-23T08:40:48.757Z,69.76
2018-02-23T08:43:16.301Z,69.48
2018-02-23T08:45:43.824Z,70.71
2018-02-23T08:48:11.370Z,70.53
2018-02-23T08:50:38.913Z,69.44
2018-02-23T08:53:06.455Z,69.31
2018-02-23T08:55:34.044Z,68.51
2018-02-23T08:58:01.561Z,68.51
2018-02-23T09:03:31.459Z,71.96
2018-02-23T09:05:59.044Z,69.55
2018-02-23T09:08:27.605Z,69.33
2018-02-23T09:10:55.134Z,68.96
2018-02-23T09:13:22.650Z,67.53
2018-02-23T09:15:50.199Z,70.16
2018-02-23T09:18:18.601Z,66.99
2018-02-23T09:20:46.115Z,68.20
2018-02-23T09:23:13.654Z,68.78
2018-02-23T09:25:41.173Z,68.98
2018-02-23T09:28:08.669Z,66.70
2018-02-23T09:30:36.203Z,66.11
2018-02-23T09:33:03.870Z,69.05
2018-02-23T09:35:31.434Z,69.89
2018-02-23T09:37:58.951Z,69.35
2018-02-23T09:40:26.468Z,68.31
2018-02-23T09:42:54.062Z,68.94
2018-02-23T09:45:21.668Z,67.39
2018-02-23T09:47:49.209Z,67.80
2018-02-23T09:50:16.868Z,66.93
2018-02-23T09:52:44.452Z,67.29
2018-02-23T09:55:11.981Z,66.54
2018-02-23T09:57:39.531Z,68.12
2018-02-23T10:00:07.462Z,67.99
2018-02-23T10:02:34.992Z,65.09
2018-02-23T10:05:02.568Z,67.64
2018-02-23T10:07:30.150Z,65.36
2018-02-23T10:09:57.726Z,64.58
2018-02-23T10:12:25.271Z,65.19
2018-02-23T10:14:52.851Z,65.98
2018-02-23T10:17:20.415Z,63.85
2018-02-23T10:19:47.997Z,62.83
2018-02-23T10:22:15.541Z,60.63
2018-02-23T10:24:43.077Z,63.37
2018-02-23T10:27:10.609Z,63.64
2018-02-23T10:29:38.144Z,62.14
2018-02-23T10:32:05.705Z,62.16
2018-02-23T10:34:33.221Z,61.60
2018-02-23T10:37:00.740Z,64.20
2018-02-23T10:39:28.494Z,60.42
2018-02-23T10:41:56.006Z,62.90
2018-02-23T10:44:23.534Z,62.46
2018-02-23T10:46:51.047Z,63.58
2018-02-23T10:49:18.670Z,61.23
2018-02-23T10:51:46.349Z,63.92
2018-02-23T10:54:13.849Z,63.28
2018-02-23T10:56:41.404Z,63.83
2018-02-23T10:59:08.936Z,60.64
2018-02-23T11:01:36.483Z,62.37
2018-02-23T11:04:04.031Z,64.76
2018-02-23T11:06:31.569Z,62.00
2018-02-23T11:08:59.543Z,61.79
2018-02-23T11:11:27.053Z,58.64
2018-02-23T11:13:54.727Z,60.17
2018-02-23T11:16:22.255Z,60.39
2018-02-23T11:18:49.784Z,60.21
2018-02-23T11:21:17.337Z,62.97
2018-02-23T11:23:44.858Z,59.28
2018-02-23T11:26:12.408Z,62.61
2018-02-23T11:28:39.923Z,61.36
2018-02-23T11:31:07.461Z,59.95
2018-02-23T11:33:34.984Z,60.91
2018-02-23T11:36:02.599Z,63.59
2018-02-23T11:38:30.168Z,61.87
2018-02-23T11:40:57.673Z,66.39
2018-02-23T11:43:25.203Z,63.37
2018-02-23T11:45:52.811Z,63.83
2018-02-23T11:48:20.336Z,63.23
2018-02-23T11:50:47.984Z,62.07
2018-02-23T11:53:15.569Z,63.41
2018-02-23T11:55:43.124Z,62.10
2018-02-23T11:58:10.649Z,62.71
2018-02-23T12:00:38.221Z,64.24
2018-02-23T12:03:05.748Z,60.50
2018-02-23T12:05:33.249Z,64.12
2018-02-23T12:08:00.790Z,62.53
2018-02-23T12:10:28.310Z,62.04
2018-02-23T12:12:55.844Z,61.00
2018-02-23T12:15:23.359Z,65.02
2018-02-23T12:17:50.950Z,61.26
2018-02-23T12:20:18.463Z,65.01
2018-02-23T12:22:46.246Z,63.62
2018-02-23T12:25:13.843Z,61.94
2018-02-23T12:27:41.960Z,63.91
2018-02-23T12:30:09.561Z,62.82
2018-02-23T12:32:37.121Z,64.98
2018-02-23T12:35:04.640Z,66.54
2018-02-23T12:37:32.179Z,61.86
2018-02-23T12:39:59.712Z,64.87
2018-02-23T12:42:27.861Z,63.11
2018-02-23T12:44:55.383Z,63.22
2018-02-23T12:47:22.903Z,59.01
2018-02-23T12:49:50.410Z,62.46
2018-02-23T12:52:18.152Z,61.48
2018-02-23T12:54:45.702Z,62.41
2018-02-23T12:57:13.245Z,64.05
2018-02-23T12:59:40.784Z,61.73
2018-02-23T13:02:08.339Z,63.82
2018-02-23T13:04:35.846Z,62.38
2018-02-23T13:07:03.392Z,65.66
2018-02-23T13:09:30.959Z,64.35
2018-02-23T13:11:58.674Z,64.23
2018-02-23T13:14:31.822Z,62.75
2018-02-23T13:16:59.338Z,63.07
2018-02-23T13:19:26.866Z,62.18
2018-02-23T13:21:54.396Z,63.64
2018-02-23T13:24:21.926Z,66.48
2018-02-23T13:26:49.478Z,66.49
2018-02-23T13:29:17.013Z,64.21
2018-02-23T13:31:44.863Z,63.91
2018-02-23T13:34:12.620Z,67.98
2018-02-23T13:36:40.563Z,64.51
2018-02-23T13:39:08.910Z,63.08
2018-02-23T13:41:41.357Z,66.42
2018-02-23T13:44:09.079Z,68.58
2018-02-23T13:46:36.645Z,66.58
2018-02-23T13:49:04.221Z,66.31
2018-02-23T13:51:31.740Z,66.06
2018-02-23T13:54:04.882Z,65.55
2018-02-23T13:56:32.485Z,69.54
2018-02-23T13:59:00.736Z,67.33
2018-02-23T14:01:28.308Z,66.67
2018-02-23T14:03:55.895Z,65.17
2018-02-23T14:06:29.232Z,67.89
2018-02-23T14:08:56.912Z,66.49
2018-02-23T14:11:24.438Z,68.18
2018-02-23T14:13:51.969Z,66.69
2018-02-23T14:16:20.420Z,67.86
2018-02-23T14:18:47.973Z,69.14
2018-02-23T14:21:15.501Z,68.07
2018-02-23T14:23:43.035Z,68.38
2018-02-23T14:26:10.561Z,68.01
2018-02-23T14:28:38.200Z,67.64
2018-02-23T14:31:05.747Z,68.86
2018-02-23T14:33:33.260Z,71.08
2018-02-23T14:36:00.776Z,68.66
2018-02-23T14:38:28.340Z,69.03
2018-02-23T14:40:56.009Z,69.66
2018-02-23T14:43:24.230Z,69.72
2018-02-23T14:45:51.806Z,69.04
2018-02-23T14:48:31.070Z,71.00
2018-02-23T14:51:10.963Z,71.77
2018-02-23T14:53:38.492Z,71.71
2018-02-23T14:56:06.065Z,71.03
2018-02-23T14:58:33.590Z,70.34
2018-02-23T15:01:01.143Z,70.90
2018-02-23T15:03:28.683Z,68.13
2018-02-23T15:05:56.210Z,72.78
2018-02-23T15:08:23.735Z,71.56
2018-02-23T15:10:51.309Z,71.52
2018-02-23T15:13:18.841Z,70.47
2018-02-23T15:15:46.481Z,73.01
2018-02-23T15:18:14.079Z,71.32
2018-02-23T15:20:41.649Z,71.94
2018-02-23T15:23:09.212Z,73.33
2018-02-23T15:25:36.731Z,71.24
2018-02-23T15:28:04.268Z,73.84
2018-02-23T15:30:43.572Z,71.40
2018-02-23T15:33:11.110Z,71.41
2018-02-23T15:35:38.693Z,70.89
2018-02-23T15:38:06.266Z,73.41
2018-02-23T15:40:33.804Z,74.29
2018-02-23T15:43:01.331Z,74.56
2018-02-23T15:45:28.862Z,74.85
2018-02-23T15:51:14.547Z,72.56
2018-02-23T15:53:42.245Z,75.34
2018-02-23T15:56:09.801Z,75.17
2018-02-23T15:58:39.129Z,74.21
2018-02-23T16:01:06.670Z,74.32
2018-02-23T16:03:35.002Z,75.03
2018-02-23T16:06:02.630Z,73.44
2018-02-23T16:08:31.857Z,75.24
2018-02-23T16:10:59.372Z,74.34
2018-02-23T16:13:27.872Z,73.85
2018-02-23T16:15:55.404Z,75.88
2018-02-23T16:18:22.936Z,73.98
2018-02-23T16:20:50.502Z,75.43
2018-02-23T16:23:18.163Z,75.05
2018-02-23T16:25:45.687Z,75.46
2018-02-23T16:28:13.223Z,76.86
2018-02-23T16:30:40.808Z,74.68
2018-02-23T16:33:08.310Z,75.10
2018-02-23T16:35:35.866Z,74.48
2018-02-23T16:38:03.359Z,75.27
2018-02-23T16:40:30.995Z,76.03
2018-02-23T16:42:58.660Z,75.91
2018-02-23T16:45:26.246Z,76.40
2018-02-23T16:47:53.762Z,75.93
2018-02-23T16:50:22.188Z,75.03
2018-02-23T16:52:50.633Z,75.47
2018-02-23T16:55:18.189Z,75.47
2018-02-23T16:57:46.517Z,76.53
2018-02-23T17:00:14.051Z,76.34
2018-02-23T17:02:41.562Z,76.40
2018-02-23T17:05:09.084Z,76.67
2018-02-23T17:07:36.637Z,75.92
2018-02-23T17:10:04.144Z,77.29
2018-02-23T17:12:31.652Z,76.62
2018-02-23T17:14:59.179Z,76.88
2018-02-23T17:17:26.691Z,77.02
2018-02-23T17:19:54.364Z,75.89
2018-02-23T17:22:21.893Z,75.92
2018-02-23T17:24:49.402Z,75.63
2018-02-23T17:27:16.929Z,76.69
2018-02-23T17:29:44.448Z,74.89
2018-02-23T17:32:12.044Z,75.44
2018-02-23T17:34:39.656Z,76.53
2018-02-23T17:37:07.231Z,77.33
2018-02-23T17:39:34.815Z,77.13
2018-02-23T17:42:02.351Z,77.02
2018-02-23T17:44:29.866Z,76.63
2018-02-23T17:46:57.401Z,75.63
2018-02-23T17:49:24.994Z,76.38
2018-02-23T17:51:52.553Z,79.04
2018-02-23T17:54:21.116Z,77.19
2018-02-23T17:56:48.665Z,77.62
2018-02-23T17:59:16.423Z,76.48
2018-02-23T18:01:44.017Z,76.86
2018-02-23T18:04:11.560Z,77.07
2018-02-23T18:06:39.144Z,76.19
2018-02-23T18:09:06.696Z,76.50
2018-02-23T18:11:34.224Z,77.67
2018-02-23T18:14:01.769Z,75.70
2018-02-23T18:16:29.390Z,76.06
2018-02-23T18:18:57.049Z,75.34
2018-02-23T18:21:24.550Z,76.04
2018-02-23T18:23:52.070Z,76.46
2018-02-23T18:26:19.582Z,76.39
2018-02-23T18:28:47.091Z,77.14
2018-02-23T18:31:14.660Z,77.02
2018-02-23T18:33:42.213Z,76.96
2018-02-23T18:36:09.748Z,76.38
2018-02-23T18:38:37.280Z,76.96
2018-02-23T18:41:04.807Z,76.67
2018-02-23T18:43:32.346Z,76.88
2018-02-23T18:45:59.915Z,75.39
2018-02-23T18:48:27.518Z,76.36
2018-02-23T18:50:55.067Z,76.41
2018-02-23T18:53:22.642Z,76.54
2018-02-23T18:55:50.172Z,75.63
2018-02-23T18:58:18.239Z,75.47
2018-02-23T19:00:45.769Z,77.05
2018-02-23T19:03:13.484Z,75.98
2018-02-23T19:05:40.997Z,76.83
2018-02-23T19:08:08.526Z,75.47
2018-02-23T19:10:36.186Z,76.68
2018-02-23T19:13:03.738Z,75.14
2018-02-23T19:15:31.498Z,76.54
2018-02-23T19:17:59.026Z,76.64
2018-02-23T19:20:26.556Z,76.79
2018-02-23T19:22:54.141Z,75.79
2018-02-23T19:25:22.671Z,75.93
2018-02-23T19:27:50.307Z,75.72
2018-02-23T19:30:17.900Z,77.20
2018-02-23T19:32:45.488Z,75.65
2018-02-23T19:35:13.625Z,76.47
2018-02-23T19:37:41.155Z,77.22
2018-02-23T19:40:09.015Z,77.22
2018-02-23T19:42:36.572Z,76.92
2018-02-23T19:45:04.117Z,76.67
2018-02-23T19:47:31.638Z,75.54
2018-02-23T19:49:59.200Z,76.32
2018-02-23T19:52:26.809Z,75.30
2018-02-23T19:54:54.384Z,75.96
2018-02-23T19:57:21.919Z,75.85
2018-02-23T19:59:49.517Z,76.41
2018-02-23T20:02:17.195Z,75.75
2018-02-23T20:04:44.872Z,83.16
2018-02-23T20:07:12.440Z,82.33
2018-02-23T20:09:39.966Z,80.09
2018-02-23T20:12:07.520Z,78.63
2018-02-23T20:14:35.052Z,76.39
2018-02-23T20:17:02.588Z,75.86
2018-02-23T20:19:30.292Z,76.73
2018-02-23T20:21:57.847Z,80.62
2018-02-23T20:24:25.402Z,79.65
2018-02-23T20:26:52.939Z,77.63
2018-02-23T20:29:20.455Z,78.30
2018-02-23T20:31:48.070Z,76.05
2018-02-23T20:34:15.626Z,78.26
2018-02-23T20:36:43.258Z,78.55
2018-02-23T20:39:11.748Z,84.87
2018-02-23T20:41:39.307Z,80.41
2018-02-23T20:44:07.115Z,79.56
2018-02-23T20:46:34.691Z,77.46
2018-02-23T20:49:02.303Z,78.32
2018-02-23T20:51:29.859Z,78.62
2018-02-23T20:53:57.524Z,77.44
2018-02-23T20:56:25.279Z,77.83
2018-02-23T20:58:52.817Z,76.15
2018-02-23T21:01:20.382Z,77.98
2018-02-23T21:03:47.901Z,77.04
2018-02-23T21:06:15.421Z,77.52
2018-02-23T21:08:42.956Z,77.36
2018-02-23T21:11:10.485Z,77.23
2018-02-23T21:13:38.060Z,76.42
2018-02-23T21:16:05.628Z,77.21
2018-02-23T21:18:33.162Z,77.10
2018-02-23T21:21:00.700Z,76.52
2018-02-23T21:23:28.218Z,77.50
2018-02-23T21:25:55.761Z,76.64
2018-02-23T21:28:23.283Z,78.05
2018-02-23T21:30:50.826Z,77.88
2018-02-23T21:33:18.350Z,77.28
2018-02-23T21:35:45.878Z,77.52
2018-02-23T21:38:13.438Z,77.95
2018-02-23T21:40:40.964Z,75.92
2018-02-23T21:43:08.495Z,77.79
2018-02-23T21:45:36.045Z,77.09
2018-02-23T21:48:03.594Z,76.62
2018-02-23T21:50:31.171Z,77.27
2018-02-23T21:52:58.747Z,77.95
2018-02-23T21:55:26.304Z,77.47
2018-02-23T21:57:53.913Z,75.72
2018-02-23T22:00:21.493Z,76.38
2018-02-23T22:02:49.079Z,76.63
2018-02-23T22:05:16.660Z,77.45
2018-02-23T22:07:44.262Z,77.86
2018-02-23T22:10:11.810Z,77.38
2018-02-23T22:12:39.410Z,77.74
2018-02-23T22:15:07.028Z,77.54
2018-02-23T22:17:34.560Z,77.30
2018-02-23T22:20:02.127Z,76.16
2018-02-23T22:22:29.710Z,77.18
2018-02-23T22:24:57.353Z,78.02
2018-02-23T22:27:24.912Z,76.76
2018-02-23T22:29:52.474Z,76.40
2018-02-23T22:32:20.010Z,76.70
2018-02-23T22:34:47.542Z,76.28
2018-02-23T22:37:15.106Z,76.78
2018-02-23T22:39:42.648Z,76.83
2018-02-23T22:42:10.178Z,77.76
2018-02-23T22:44:37.687Z,76.82
2018-02-23T22:47:05.197Z,76.57
2018-02-23T22:49:32.837Z,76.67
2018-02-23T22:52:00.391Z,75.38
2018-02-23T22:54:27.911Z,76.51
2018-02-23T22:56:55.424Z,76.16
2018-02-23T22:59:22.952Z,76.55
2018-02-23T23:01:50.497Z,76.53
2018-02-23T23:04:18.011Z,77.78
2018-02-23T23:06:45.512Z,76.69
2018-02-23T23:09:13.057Z,77.46
2018-02-23T23:11:40.579Z,76.32
2018-02-23T23:14:08.125Z,77.36
2018-02-23T23:16:35.642Z,77.10
2018-02-23T23:19:03.174Z,77.47
2018-02-23T23:21:30.685Z,75.79
2018-02-23T23:23:58.692Z,76.74
2018-02-23T23:26:26.307Z,75.70
2018-02-23T23:28:53.836Z,77.77
2018-02-23T23:31:21.546Z,76.11
2018-02-23T23:33:49.181Z,76.42
2018-02-23T23:36:16.709Z,76.92
2018-02-23T23:38:44.241Z,77.27
2018-02-23T23:41:11.745Z,76.74
2018-02-23T23:43:41.236Z,76.05
2018-02-23T23:46:08.745Z,77.58
2018-02-23T23:48:36.334Z,76.47
2018-02-23T23:51:03.959Z,76.83
2018-02-23T23:53:31.510Z,75.68
2018-02-23T23:55:59.082Z,77.09
2018-02-23T23:58:26.987Z,76.25
